Historyczne dane pomiarowe

Dodano dane terminowe – wersja testowa.

Dane z okresu 1951-2019

Wersja bazy: 1.34 [2019-03-16, lista zmian], aktualizacja planowana na 2019-04-15

Dane meteo z obszaru Polski uzyskane na podstawie danych udostępnionych przez Instytut Meteorologii i Gospodarki Wodnej – Państwowy Instytut Badawczy.

 

Wybierz Datę:    

       

TemperaturaWilgotnośćWiatrCiśnienieOpadyŚniegCzas trwania zjawisk
 Stacja t tx tn tng RH VA  wxwx mslp ppp RRR   cm mm wxwxwxwxwxwxwx
2019-07-25 17.9 24.5 8.4- 73.0- 3.0 1.0---- 0.0------------
2019-07-24 17.0 20.5 13.7- 85.3- 6.3 1.0---- 0.3------------
2019-07-23 15.3 19.4 12.7- 97.8- 8.0 1.3---- 7.9------------
2019-07-22 16.8 22.1 9.8- 77.3- 5.3 0.7---- 1.4------------
2019-07-21 17.7 26.6 10.3- 76.8- 6.3 1.0---- 17.3------------
2019-07-20 16.8 24.5 9.8- 79.5- 6.7 1.3---- 0.1------------
2019-07-19 15.1 24.0 4.5- 59.0- 5.0 1.3---- 0.0------------
2019-07-18 13.1 19.5 3.7- 67.0- 5.3 0.7---- 0.0------------
2019-07-17 14.0 18.4 9.8- 70.5- 4.0 1.7---- 0.0------------
2019-07-16 13.0 20.1 3.5- 57.8- 4.0 1.7---- 0.0------------
2019-07-15 12.2 17.9 3.5- 68.3- 3.3 1.3---- 0.0------------
2019-07-14 13.0 15.9 11.2- 89.5- 6.7 1.0---- 2.7------------
2019-07-13 13.6 17.1 10.3- 86.3- 7.3 1.0---- 4.4------------
2019-07-12 15.1 30.1 1.3- 56.3- 4.3 1.3---- 0.2------------
2019-07-11 10.3 14.3 5.9- 91.0- 6.0 0.7---- 11.7------------
2019-07-10 10.7 15.5 6.9- 75.5- 7.0 2.0---- 1.8------------
2019-07-09 11.0 16.5 2.0- 52.5- 4.3 2.7---- 0.6------------
2019-07-08 11.8 16.6 5.9- 56.5- 5.7 3.0---- 0.0------------
2019-07-07 18.2 23.5 11.5- 50.5- 5.3 3.0---- 1.1------------
2019-07-06 18.9 24.6 11.3- 45.5- 4.0 3.3---- 0.0------------
2019-07-05 14.3 21.3 3.8- 53.3- 6.0 2.7---- 0.0------------
2019-07-04 13.3 20.2 2.5- 48.5- 0.7 2.0---- 0.0------------
2019-07-03 14.3 20.2 7.4- 58.3- 2.7 2.0---- 0.0------------
2019-07-02 19.4 23.2 14.7- 64.5- 4.3 2.3---- 0.0------------
2019-07-01 20.6 30.8 8.9- 49.0- 3.0 4.3---- 0.5------------
2019-06-30 19.7 30.0 7.8- 52.5- 0.0 1.3---- 0.0------------
2019-06-29 16.8 22.0 10.5- 61.5- 3.0 1.3---- 0.0------------
2019-06-28 14.0 20.4 7.1- 73.8- 3.3 2.0---- 0.0------------
2019-06-27 21.3 26.1 15.1- 56.8- 2.0 3.7---- 0.0------------
2019-06-26 22.1 29.2 11.8- 57.5- 1.7 2.3---- 0.0------------
2019-06-25 19.9 27.6 10.0- 66.5- 1.7 1.7---- 0.0------------
2019-06-24 17.4 20.3 13.7- 77.8- 6.0 2.3---- 0.0------------
2019-06-23 17.0 19.0 15.2- 85.8- 8.0 2.3---- 1.2------------
2019-06-22 16.3 20.4 11.3- 88.0- 6.7 1.0---- 1.5------------
2019-06-21 17.8 22.3 13.7- 79.3- 6.7 0.7---- 0.5------------
2019-06-20 17.5 21.9 13.7- 91.0- 7.0 1.0---- 3.8------------
2019-06-19 16.5 24.0 9.3- 79.5- 5.7 1.0---- 6.7------------
2019-06-18 14.8 20.0 5.9- 78.8- 5.7 2.3---- 3.7------------
2019-06-17 15.1 18.1 12.3- 89.8- 5.7 1.0---- 12.3------------
2019-06-16 19.8 27.4 11.8- 77.5- 5.3 2.3---- 28.2------------
2019-06-15 21.6 29.1 10.4- 59.5- 2.3 2.0---- 0.0------------
2019-06-14 21.4 27.0 12.7- 71.0- 4.3 2.0---- 0.3------------
2019-06-13 20.9 29.9 10.3- 60.5- 2.0 1.3---- 0.0------------
2019-06-12 21.0 28.1 10.9- 52.8- 1.3 2.0---- 0.0------------
2019-06-11 20.4 27.6 8.8- 49.5- 1.0 2.0---- 0.0------------
2019-06-10 19.1 27.9 8.8- 70.3- 2.0 1.0---- 0.0------------
2019-06-09 17.4 22.5 11.0- 65.5- 3.3 3.0---- 0.0------------
2019-06-08 17.5 25.3 8.4- 58.5- 4.0 2.3---- 0.0------------
2019-06-07 16.3 22.6 7.9- 78.0- 6.3 0.7---- 1.7------------
2019-06-06 15.0 21.5 6.4- 69.3- 4.0 1.7---- 0.3------------
2019-06-05 16.0 23.0 6.4- 65.3- 3.7 2.0---- 0.0------------
2019-06-04 16.6 23.3 7.4- 65.3- 2.7 1.7---- 0.2------------
2019-06-03 15.4 22.3 5.4- 74.0- 3.7 2.3---- 0.6------------
2019-06-02 16.3 21.1 7.9- 61.8- 2.7 1.3---- 0.0------------
2019-06-01 12.5 19.3 3.5- 80.3- 5.7 0.7---- 1.4------------
2019-05-31 10.1 15.0 5.6- 88.8- 5.3 1.3---- 0.6------------
2019-05-30 7.3 8.6 5.9- 94.3- 8.0 1.0---- 19.5------------
2019-05-29 9.6 12.7 6.4- 94.5- 8.0 1.0---- 12.8------------
2019-05-28 13.8 17.9 10.3- 79.3- 7.3 2.0---- 2.6------------
2019-05-27 14.1 20.0 4.9- 62.0- 5.7 0.7---- 0.0------------
76.7 ms

 

Źródłem pochodzenia danych jest Instytut Meteorologii i Gospodarki Wodnej – Państwowy Instytut Badawczy. Dane Instytutu Meteorologii i Gospodarki Wodnej – Państwowego Instytutu Badawczego zostały przetworzone.

Dane źródłowe można odnaleźć na stronie https://dane.imgw.pl